PWSweather.com
Personal Weather Stations
Station Observations
ISARATOV3
SaratovRU 410004

SaratovRU 410004

Lat: 51.524441, Lon: 45.998545

Elevation: 203

Station Type: Oregon Scientific WMR200

http://meteo.hsdn.org/

Latest ConditionsUpdated 5:00:00 PM GMT+04:04 Sunday, Dec 15, 2019
Currently Today's Max Today's Min Today's Average
Temperature 25.2°F-3.8°C 25.3°F-3.7°C 23.7°F-4.6°C 24.4°F-4.2°C
Dew Point 19.0°F-7.2°C 19.1°F-7.2°C 16.7°F-8.5°C 17.8°F-7.9°C
Winds 4.3 mph SSE6.9 kmh SSE 10.1 mph -16.3 kmh - - 5.8 mph 9.3 kmh
Wind Gusts 11.9 mph19.2 kmh 14.8 mph23.8 kmh - -
Humidity 77% 79% 72% 76%
Pressure 30.18 in1022.0 mb 30.27 in1025.1 mb 30.15 in1021.0 mb -
Hour Temp Dew Point Humidity Winds Wind Gusts Pressure Precip Precip Rate Daily Precip Total
05:00 PM 25.2°F-3.8°C 19.0°F-7.2°C 77% 4.3 mph SSE6.9 kmh SSE 11.9 mph19.2 kmh 30.18 in1022.0 mb 0.00 in0.0 mm 0.00 in0.0 mm 0.00 in0.0 mm
04:50 PM 25.2°F-3.8°C 19.0°F-7.2°C 77% 6.3 mph SSE10.1 kmh SSE 13.2 mph21.2 kmh 30.18 in1022.0 mb 0.00 in0.0 mm 0.00 in0.0 mm 0.00 in0.0 mm
04:40 PM 25.2°F-3.8°C 18.7°F-7.4°C 76% 9.2 mph SE14.8 kmh SE 10.7 mph17.2 kmh 30.18 in1022.0 mb 0.00 in0.0 mm 0.00 in0.0 mm 0.00 in0.0 mm
04:30 PM 25.2°F-3.8°C 19.0°F-7.2°C 77% 6.3 mph SSE10.1 kmh SSE 10.7 mph17.2 kmh 30.18 in1022.0 mb 0.00 in0.0 mm 0.00 in0.0 mm 0.00 in0.0 mm
04:20 PM 25.2°F-3.8°C 18.7°F-7.4°C 76% 8.1 mph SE13.0 kmh SE 12.3 mph19.8 kmh 30.18 in1022.0 mb 0.00 in0.0 mm 0.00 in0.0 mm 0.00 in0.0 mm
04:10 PM 25.2°F-3.8°C 19.0°F-7.2°C 77% 8.5 mph SSE13.7 kmh SSE 14.5 mph23.3 kmh 30.18 in1022.0 mb 0.00 in0.0 mm 0.00 in0.0 mm 0.00 in0.0 mm
04:00 PM 25.0°F-3.9°C 18.8°F-7.3°C 77% 10.1 mph SSE16.3 kmh SSE 14.5 mph23.3 kmh 30.18 in1022.0 mb 0.00 in0.0 mm 0.00 in0.0 mm 0.00 in0.0 mm
03:50 PM 25.2°F-3.8°C 18.7°F-7.4°C 76% 10.1 mph SSE16.3 kmh SSE 12.8 mph20.6 kmh 30.18 in1022.0 mb 0.00 in0.0 mm 0.00 in0.0 mm 0.00 in0.0 mm
03:40 PM 25.2°F-3.8°C 19.0°F-7.2°C 77% 7.4 mph SE11.9 kmh SE 14.3 mph23.0 kmh 30.18 in1022.0 mb 0.00 in0.0 mm 0.00 in0.0 mm 0.00 in0.0 mm
03:30 PM 25.2°F-3.8°C 18.7°F-7.4°C 76% 9.8 mph SE15.8 kmh SE 14.5 mph23.3 kmh 30.15 in1021.0 mb 0.00 in0.0 mm 0.00 in0.0 mm 0.00 in0.0 mm
03:20 PM 25.2°F-3.8°C 18.7°F-7.4°C 76% 6.9 mph SSE11.1 kmh SSE 10.3 mph16.6 kmh 30.15 in1021.0 mb 0.00 in0.0 mm 0.00 in0.0 mm 0.00 in0.0 mm
03:10 PM 25.3°F-3.7°C 18.8°F-7.3°C 76% 4.3 mph SE6.9 kmh SE 12.3 mph19.8 kmh 30.18 in1022.0 mb 0.00 in0.0 mm 0.00 in0.0 mm 0.00 in0.0 mm
03:00 PM 25.3°F-3.7°C 19.1°F-7.2°C 77% 4.7 mph SE7.6 kmh SE 12.5 mph20.1 kmh 30.18 in1022.0 mb 0.00 in0.0 mm 0.00 in0.0 mm 0.00 in0.0 mm
02:50 PM 25.3°F-3.7°C 18.8°F-7.3°C 76% 6.9 mph SSE11.1 kmh SSE 12.5 mph20.1 kmh 30.18 in1022.0 mb 0.00 in0.0 mm 0.00 in0.0 mm 0.00 in0.0 mm
02:40 PM 25.2°F-3.8°C 19.0°F-7.2°C 77% 3.1 mph SSE5.0 kmh SSE 12.3 mph19.8 kmh 30.18 in1022.0 mb 0.00 in0.0 mm 0.00 in0.0 mm 0.00 in0.0 mm
02:30 PM 25.2°F-3.8°C 18.7°F-7.4°C 76% 8.1 mph SE13.0 kmh SE 13.0 mph20.9 kmh 30.18 in1022.0 mb 0.00 in0.0 mm 0.00 in0.0 mm 0.00 in0.0 mm
02:20 PM 25.0°F-3.9°C 18.8°F-7.3°C 77% 6.7 mph SSE10.8 kmh SSE 13.6 mph21.9 kmh 30.18 in1022.0 mb 0.00 in0.0 mm 0.00 in0.0 mm 0.00 in0.0 mm
02:10 PM 25.0°F-3.9°C 18.8°F-7.3°C 77% 8.1 mph SE13.0 kmh SE 13.0 mph20.9 kmh 30.18 in1022.0 mb 0.00 in0.0 mm 0.00 in0.0 mm 0.00 in0.0 mm
02:00 PM 24.8°F-4.0°C 18.6°F-7.4°C 77% 5.6 mph SSE9.0 kmh SSE 11.9 mph19.2 kmh 30.18 in1022.0 mb 0.00 in0.0 mm 0.00 in0.0 mm 0.00 in0.0 mm
01:50 PM 24.8°F-4.0°C 18.6°F-7.4°C 77% 4.0 mph SSE6.4 kmh SSE 8.7 mph14.0 kmh 30.18 in1022.0 mb 0.00 in0.0 mm 0.00 in0.0 mm 0.00 in0.0 mm
01:40 PM 24.8°F-4.0°C 18.3°F-7.6°C 76% 6.7 mph SE10.8 kmh SE 11.0 mph17.7 kmh 30.18 in1022.0 mb 0.00 in0.0 mm 0.00 in0.0 mm 0.00 in0.0 mm
01:30 PM 25.0°F-3.9°C 18.8°F-7.3°C 77% 4.3 mph SE6.9 kmh SE 10.7 mph17.2 kmh 30.21 in1023.0 mb 0.00 in0.0 mm 0.00 in0.0 mm 0.00 in0.0 mm
01:20 PM 25.0°F-3.9°C 19.1°F-7.2°C 78% 3.6 mph SSE5.8 kmh SSE 12.1 mph19.5 kmh 30.21 in1023.0 mb 0.00 in0.0 mm 0.00 in0.0 mm 0.00 in0.0 mm
01:10 PM 24.8°F-4.0°C 18.6°F-7.4°C 77% 2.2 mph S3.5 kmh S 10.7 mph17.2 kmh 30.21 in1023.0 mb 0.00 in0.0 mm 0.00 in0.0 mm 0.00 in0.0 mm
01:00 PM 24.6°F-4.1°C 18.4°F-7.6°C 77% 6.7 mph SSE10.8 kmh SSE 13.0 mph20.9 kmh 30.18 in1022.0 mb 0.00 in0.0 mm 0.00 in0.0 mm 0.00 in0.0 mm
12:50 PM 24.6°F-4.1°C 18.4°F-7.6°C 77% 7.6 mph SE12.2 kmh SE 14.3 mph23.0 kmh 30.18 in1022.0 mb 0.00 in0.0 mm 0.00 in0.0 mm 0.00 in0.0 mm
12:40 PM 24.6°F-4.1°C 18.4°F-7.6°C 77% 7.4 mph SE11.9 kmh SE 13.4 mph21.6 kmh 30.21 in1023.0 mb 0.00 in0.0 mm 0.00 in0.0 mm 0.00 in0.0 mm
12:30 PM 24.4°F-4.2°C 18.6°F-7.4°C 78% 5.8 mph SSE9.3 kmh SSE 12.1 mph19.5 kmh 30.21 in1023.0 mb 0.00 in0.0 mm 0.00 in0.0 mm 0.00 in0.0 mm
12:20 PM 24.4°F-4.2°C 18.3°F-7.6°C 77% 4.9 mph SSE7.9 kmh SSE 12.8 mph20.6 kmh 30.21 in1023.0 mb 0.00 in0.0 mm 0.00 in0.0 mm 0.00 in0.0 mm
12:10 PM 24.3°F-4.3°C 18.4°F-7.6°C 78% 4.5 mph SSE7.2 kmh SSE 12.8 mph20.6 kmh 30.21 in1023.0 mb 0.00 in0.0 mm 0.00 in0.0 mm 0.00 in0.0 mm
12:00 PM 24.3°F-4.3°C 18.4°F-7.6°C 78% 3.4 mph SSE5.5 kmh SSE 7.8 mph12.6 kmh 30.21 in1023.0 mb 0.00 in0.0 mm 0.00 in0.0 mm 0.00 in0.0 mm
11:50 AM 24.3°F-4.3°C 18.4°F-7.6°C 78% 4.9 mph SE7.9 kmh SE 14.1 mph22.7 kmh 30.21 in1023.0 mb 0.00 in0.0 mm 0.00 in0.0 mm 0.00 in0.0 mm
11:40 AM 24.3°F-4.3°C 18.1°F-7.7°C 77% 6.9 mph SSE11.1 kmh SSE 12.1 mph19.5 kmh 30.21 in1023.0 mb 0.00 in0.0 mm 0.00 in0.0 mm 0.00 in0.0 mm
11:30 AM 24.1°F-4.4°C 17.9°F-7.8°C 77% 7.6 mph SSE12.2 kmh SSE 11.0 mph17.7 kmh 30.24 in1024.0 mb 0.00 in0.0 mm 0.00 in0.0 mm 0.00 in0.0 mm
11:20 AM 24.3°F-4.3°C 18.4°F-7.6°C 78% 3.8 mph SSE6.1 kmh SSE 10.3 mph16.6 kmh 30.24 in1024.0 mb 0.00 in0.0 mm 0.00 in0.0 mm 0.00 in0.0 mm
11:10 AM 24.1°F-4.4°C 18.2°F-7.7°C 78% 5.6 mph SE9.0 kmh SE 10.3 mph16.6 kmh 30.21 in1023.0 mb 0.00 in0.0 mm 0.00 in0.0 mm 0.00 in0.0 mm
11:00 AM 24.1°F-4.4°C 18.2°F-7.7°C 78% 5.6 mph SSE9.0 kmh SSE 9.8 mph15.8 kmh 30.24 in1024.0 mb 0.00 in0.0 mm 0.00 in0.0 mm 0.00 in0.0 mm
10:50 AM 23.9°F-4.5°C 18.0°F-7.8°C 78% 6.5 mph SE10.5 kmh SE 14.8 mph23.8 kmh 30.24 in1024.0 mb 0.00 in0.0 mm 0.00 in0.0 mm 0.00 in0.0 mm
10:40 AM 23.9°F-4.5°C 18.0°F-7.8°C 78% 6.7 mph SE10.8 kmh SE 13.9 mph22.4 kmh 30.24 in1024.0 mb 0.00 in0.0 mm 0.00 in0.0 mm 0.00 in0.0 mm
10:30 AM 23.9°F-4.5°C 18.0°F-7.8°C 78% 10.1 mph SE16.3 kmh SE 13.0 mph20.9 kmh 30.24 in1024.0 mb 0.00 in0.0 mm 0.00 in0.0 mm 0.00 in0.0 mm
10:20 AM 23.9°F-4.5°C 18.0°F-7.8°C 78% 8.1 mph SE13.0 kmh SE 12.3 mph19.8 kmh 30.24 in1024.0 mb 0.00 in0.0 mm 0.00 in0.0 mm 0.00 in0.0 mm
10:10 AM 24.1°F-4.4°C 18.2°F-7.7°C 78% 10.1 mph SSE16.3 kmh SSE 12.8 mph20.6 kmh 30.24 in1024.0 mb 0.00 in0.0 mm 0.00 in0.0 mm 0.00 in0.0 mm
10:00 AM 24.1°F-4.4°C 18.2°F-7.7°C 78% 6.9 mph S11.1 kmh S 12.8 mph20.6 kmh 30.24 in1024.0 mb 0.00 in0.0 mm 0.00 in0.0 mm 0.00 in0.0 mm
09:50 AM 23.9°F-4.5°C 18.0°F-7.8°C 78% 3.6 mph SSE5.8 kmh SSE 11.2 mph18.0 kmh 30.24 in1024.0 mb 0.00 in0.0 mm 0.00 in0.0 mm 0.00 in0.0 mm
09:40 AM 24.1°F-4.4°C 18.2°F-7.7°C 78% 5.8 mph SSE9.3 kmh SSE 8.7 mph14.0 kmh 30.24 in1024.0 mb 0.00 in0.0 mm 0.00 in0.0 mm 0.00 in0.0 mm
09:30 AM 23.9°F-4.5°C 18.0°F-7.8°C 78% 9.4 mph SE15.1 kmh SE 12.5 mph20.1 kmh 30.21 in1023.0 mb 0.00 in0.0 mm 0.00 in0.0 mm 0.00 in0.0 mm
09:20 AM 23.9°F-4.5°C 18.0°F-7.8°C 78% 5.4 mph SSE8.7 kmh SSE 8.7 mph14.0 kmh 30.21 in1023.0 mb 0.00 in0.0 mm 0.00 in0.0 mm 0.00 in0.0 mm
09:10 AM 23.9°F-4.5°C 18.3°F-7.6°C 79% 5.8 mph SSE9.3 kmh SSE 8.9 mph14.3 kmh 30.24 in1024.0 mb 0.00 in0.0 mm 0.00 in0.0 mm 0.00 in0.0 mm
09:00 AM 23.9°F-4.5°C 18.3°F-7.6°C 79% 6.7 mph SE10.8 kmh SE 12.8 mph20.6 kmh 30.24 in1024.0 mb 0.00 in0.0 mm 0.00 in0.0 mm 0.00 in0.0 mm
08:50 AM 23.7°F-4.6°C 17.9°F-7.8°C 78% 5.8 mph SE9.3 kmh SE 13.0 mph20.9 kmh 30.24 in1024.0 mb 0.00 in0.0 mm 0.00 in0.0 mm 0.00 in0.0 mm
08:40 AM 23.7°F-4.6°C 17.9°F-7.8°C 78% 4.7 mph SSE7.6 kmh SSE 14.3 mph23.0 kmh 30.24 in1024.0 mb 0.00 in0.0 mm 0.00 in0.0 mm 0.00 in0.0 mm
08:30 AM 23.7°F-4.6°C 17.9°F-7.8°C 78% 5.6 mph SSE9.0 kmh SSE 13.0 mph20.9 kmh 30.24 in1024.0 mb 0.00 in0.0 mm 0.00 in0.0 mm 0.00 in0.0 mm
08:20 AM 23.9°F-4.5°C 18.0°F-7.8°C 78% 3.8 mph SE6.1 kmh SE 10.5 mph16.9 kmh 30.24 in1024.0 mb 0.00 in0.0 mm 0.00 in0.0 mm 0.00 in0.0 mm
08:10 AM 23.7°F-4.6°C 17.9°F-7.8°C 78% 8.5 mph SSE13.7 kmh SSE 12.3 mph19.8 kmh 30.24 in1024.0 mb 0.00 in0.0 mm 0.00 in0.0 mm 0.00 in0.0 mm
08:00 AM 23.7°F-4.6°C 17.9°F-7.8°C 78% 8.5 mph SSE13.7 kmh SSE 12.3 mph19.8 kmh 30.24 in1024.0 mb 0.00 in0.0 mm 0.00 in0.0 mm 0.00 in0.0 mm
07:50 AM 23.9°F-4.5°C 18.0°F-7.8°C 78% 6.0 mph SE9.7 kmh SE 10.3 mph16.6 kmh 30.24 in1024.0 mb 0.00 in0.0 mm 0.00 in0.0 mm 0.00 in0.0 mm
07:40 AM 23.9°F-4.5°C 18.0°F-7.8°C 78% 6.7 mph SSE10.8 kmh SSE 10.3 mph16.6 kmh 30.24 in1024.0 mb 0.00 in0.0 mm 0.00 in0.0 mm 0.00 in0.0 mm
07:30 AM 23.9°F-4.5°C 17.7°F-7.9°C 77% 5.4 mph SSE8.7 kmh SSE 10.1 mph16.3 kmh 30.24 in1024.0 mb 0.00 in0.0 mm 0.00 in0.0 mm 0.00 in0.0 mm
07:20 AM 23.9°F-4.5°C 17.7°F-7.9°C 77% 3.6 mph SSE5.8 kmh SSE 10.3 mph16.6 kmh 30.24 in1024.0 mb 0.00 in0.0 mm 0.00 in0.0 mm 0.00 in0.0 mm
07:10 AM 23.9°F-4.5°C 17.4°F-8.1°C 76% 4.0 mph SSE6.4 kmh SSE 11.0 mph17.7 kmh 30.24 in1024.0 mb 0.00 in0.0 mm 0.00 in0.0 mm 0.00 in0.0 mm
07:00 AM 23.9°F-4.5°C 17.4°F-8.1°C 76% 5.6 mph SSE9.0 kmh SSE 9.4 mph15.1 kmh 30.24 in1024.0 mb 0.00 in0.0 mm 0.00 in0.0 mm 0.00 in0.0 mm
06:50 AM 23.9°F-4.5°C 17.4°F-8.1°C 76% 8.1 mph SE13.0 kmh SE 13.2 mph21.2 kmh 30.24 in1024.0 mb 0.00 in0.0 mm 0.00 in0.0 mm 0.00 in0.0 mm
06:40 AM 24.1°F-4.4°C 17.3°F-8.2°C 75% 4.5 mph SSE7.2 kmh SSE 12.3 mph19.8 kmh 30.24 in1024.0 mb 0.00 in0.0 mm 0.00 in0.0 mm 0.00 in0.0 mm
06:30 AM 24.3°F-4.3°C 17.5°F-8.1°C 75% 3.1 mph SSE5.0 kmh SSE 11.0 mph17.7 kmh 30.24 in1024.0 mb 0.00 in0.0 mm 0.00 in0.0 mm 0.00 in0.0 mm
06:20 AM 24.3°F-4.3°C 17.5°F-8.1°C 75% 5.4 mph SE8.7 kmh SE 10.1 mph16.3 kmh 30.24 in1024.0 mb 0.00 in0.0 mm 0.00 in0.0 mm 0.00 in0.0 mm
06:10 AM 24.3°F-4.3°C 17.5°F-8.1°C 75% 9.2 mph SSE14.8 kmh SSE 10.3 mph16.6 kmh 30.21 in1023.0 mb 0.00 in0.0 mm 0.00 in0.0 mm 0.00 in0.0 mm
06:00 AM 24.3°F-4.3°C 17.5°F-8.1°C 75% 4.0 mph SSE6.4 kmh SSE 10.5 mph16.9 kmh 30.24 in1024.0 mb 0.00 in0.0 mm 0.00 in0.0 mm 0.00 in0.0 mm
05:50 AM 24.3°F-4.3°C 17.2°F-8.2°C 74% 4.3 mph SSE6.9 kmh SSE 13.0 mph20.9 kmh 30.24 in1024.0 mb 0.00 in0.0 mm 0.00 in0.0 mm 0.00 in0.0 mm
05:40 AM 24.4°F-4.2°C 17.6°F-8.0°C 75% 1.6 mph S2.6 kmh S 10.7 mph17.2 kmh 30.24 in1024.0 mb 0.00 in0.0 mm 0.00 in0.0 mm 0.00 in0.0 mm
05:30 AM 24.4°F-4.2°C 17.3°F-8.2°C 74% 3.1 mph SSE5.0 kmh SSE 10.5 mph16.9 kmh 30.24 in1024.0 mb 0.00 in0.0 mm 0.00 in0.0 mm 0.00 in0.0 mm
05:20 AM 24.3°F-4.3°C 17.2°F-8.2°C 74% 6.7 mph SE10.8 kmh SE 11.0 mph17.7 kmh 30.24 in1024.0 mb 0.00 in0.0 mm 0.00 in0.0 mm 0.00 in0.0 mm
05:10 AM 24.4°F-4.2°C 17.3°F-8.2°C 74% 5.4 mph SSE8.7 kmh SSE 11.0 mph17.7 kmh 30.24 in1024.0 mb 0.00 in0.0 mm 0.00 in0.0 mm 0.00 in0.0 mm
05:00 AM 24.4°F-4.2°C 17.3°F-8.2°C 74% 4.0 mph S6.4 kmh S 8.5 mph13.7 kmh 30.24 in1024.0 mb 0.00 in0.0 mm 0.00 in0.0 mm 0.00 in0.0 mm
04:50 AM 24.4°F-4.2°C 17.3°F-8.2°C 74% 1.3 mph SE2.1 kmh SE 9.8 mph15.8 kmh 30.24 in1024.0 mb 0.00 in0.0 mm 0.00 in0.0 mm 0.00 in0.0 mm
04:40 AM 24.4°F-4.2°C 17.3°F-8.2°C 74% 3.1 mph S5.0 kmh S 6.5 mph10.5 kmh 30.24 in1024.0 mb 0.00 in0.0 mm 0.00 in0.0 mm 0.00 in0.0 mm
04:30 AM 24.4°F-4.2°C 17.6°F-8.0°C 75% 4.0 mph SSE6.4 kmh SSE 7.2 mph11.6 kmh 30.24 in1024.0 mb 0.00 in0.0 mm 0.00 in0.0 mm 0.00 in0.0 mm
04:20 AM 24.3°F-4.3°C 17.2°F-8.2°C 74% 4.3 mph SSE6.9 kmh SSE 10.5 mph16.9 kmh 30.24 in1024.0 mb 0.00 in0.0 mm 0.00 in0.0 mm 0.00 in0.0 mm
04:10 AM 24.3°F-4.3°C 17.2°F-8.2°C 74% 4.0 mph SSE6.4 kmh SSE 10.5 mph16.9 kmh 30.24 in1024.0 mb 0.00 in0.0 mm 0.00 in0.0 mm 0.00 in0.0 mm
04:00 AM 24.3°F-4.3°C 17.5°F-8.1°C 75% 4.5 mph SE7.2 kmh SE 7.4 mph11.9 kmh 30.24 in1024.0 mb 0.00 in0.0 mm 0.00 in0.0 mm 0.00 in0.0 mm
03:50 AM 24.1°F-4.4°C 17.0°F-8.3°C 74% 4.9 mph SE7.9 kmh SE 10.3 mph16.6 kmh 30.24 in1024.0 mb 0.00 in0.0 mm 0.00 in0.0 mm 0.00 in0.0 mm
03:40 AM 24.1°F-4.4°C 17.0°F-8.3°C 74% 6.7 mph SSE10.8 kmh SSE 8.7 mph14.0 kmh 30.21 in1023.0 mb 0.00 in0.0 mm 0.00 in0.0 mm 0.00 in0.0 mm
03:30 AM 24.1°F-4.4°C 17.0°F-8.3°C 74% 5.8 mph SSE9.3 kmh SSE 8.7 mph14.0 kmh 30.24 in1024.0 mb 0.00 in0.0 mm 0.00 in0.0 mm 0.00 in0.0 mm
03:20 AM 24.3°F-4.3°C 17.2°F-8.2°C 74% 7.6 mph SSE12.2 kmh SSE 11.9 mph19.2 kmh 30.24 in1024.0 mb 0.00 in0.0 mm 0.00 in0.0 mm 0.00 in0.0 mm
03:10 AM 24.1°F-4.4°C 17.0°F-8.3°C 74% 6.0 mph SE9.7 kmh SE 8.9 mph14.3 kmh 30.24 in1024.0 mb 0.00 in0.0 mm 0.00 in0.0 mm 0.00 in0.0 mm
03:00 AM 24.1°F-4.4°C 16.7°F-8.5°C 73% 7.6 mph SSE12.2 kmh SSE 12.3 mph19.8 kmh 30.24 in1024.0 mb 0.00 in0.0 mm 0.00 in0.0 mm 0.00 in0.0 mm
02:50 AM 24.3°F-4.3°C 16.8°F-8.4°C 73% 8.9 mph SE14.3 kmh SE 10.7 mph17.2 kmh 30.24 in1024.0 mb 0.00 in0.0 mm 0.00 in0.0 mm 0.00 in0.0 mm
02:40 AM 24.4°F-4.2°C 17.0°F-8.3°C 73% 1.6 mph SE2.6 kmh SE 8.5 mph13.7 kmh 30.24 in1024.0 mb 0.00 in0.0 mm 0.00 in0.0 mm 0.00 in0.0 mm
02:30 AM 24.4°F-4.2°C 17.0°F-8.3°C 73% 4.5 mph SE7.2 kmh SE 10.3 mph16.6 kmh 30.24 in1024.0 mb 0.00 in0.0 mm 0.00 in0.0 mm 0.00 in0.0 mm
02:20 AM 24.4°F-4.2°C 16.7°F-8.5°C 72% 3.6 mph SSE5.8 kmh SSE 11.2 mph18.0 kmh 30.24 in1024.0 mb 0.00 in0.0 mm 0.00 in0.0 mm 0.00 in0.0 mm
02:10 AM 24.4°F-4.2°C 16.7°F-8.5°C 72% 3.4 mph S5.5 kmh S 10.7 mph17.2 kmh 30.24 in1024.0 mb 0.00 in0.0 mm 0.00 in0.0 mm 0.00 in0.0 mm
02:00 AM 24.4°F-4.2°C 16.7°F-8.5°C 72% 3.1 mph SSE5.0 kmh SSE 10.3 mph16.6 kmh 30.24 in1024.0 mb 0.00 in0.0 mm 0.00 in0.0 mm 0.00 in0.0 mm
01:50 AM 24.4°F-4.2°C 16.7°F-8.5°C 72% 4.5 mph SSE7.2 kmh SSE 10.7 mph17.2 kmh 30.24 in1024.0 mb 0.00 in0.0 mm 0.00 in0.0 mm 0.00 in0.0 mm
01:40 AM 24.4°F-4.2°C 16.7°F-8.5°C 72% 3.4 mph SSE5.5 kmh SSE 9.4 mph15.1 kmh 30.24 in1024.0 mb 0.00 in0.0 mm 0.00 in0.0 mm 0.00 in0.0 mm
01:30 AM 24.4°F-4.2°C 16.7°F-8.5°C 72% 4.3 mph SSE6.9 kmh SSE 8.1 mph13.0 kmh 30.24 in1024.0 mb 0.00 in0.0 mm 0.00 in0.0 mm 0.00 in0.0 mm
01:20 AM 24.4°F-4.2°C 16.7°F-8.5°C 72% 3.1 mph SSE5.0 kmh SSE 13.2 mph21.2 kmh 30.24 in1024.0 mb 0.00 in0.0 mm 0.00 in0.0 mm 0.00 in0.0 mm
01:10 AM 24.4°F-4.2°C 16.7°F-8.5°C 72% 5.6 mph SSE9.0 kmh SSE 12.1 mph19.5 kmh 30.24 in1024.0 mb 0.00 in0.0 mm 0.00 in0.0 mm 0.00 in0.0 mm
01:00 AM 24.4°F-4.2°C 16.7°F-8.5°C 72% 6.7 mph SSE10.8 kmh SSE 10.3 mph16.6 kmh 30.24 in1024.0 mb 0.00 in0.0 mm 0.00 in0.0 mm 0.00 in0.0 mm
12:50 AM 24.4°F-4.2°C 17.0°F-8.3°C 73% 4.5 mph SSE7.2 kmh SSE 10.5 mph16.9 kmh 30.24 in1024.0 mb 0.00 in0.0 mm 0.00 in0.0 mm 0.00 in0.0 mm
12:40 AM 24.4°F-4.2°C 16.7°F-8.5°C 72% 6.5 mph SE10.5 kmh SE 10.7 mph17.2 kmh 30.27 in1025.1 mb 0.00 in0.0 mm 0.00 in0.0 mm 0.00 in0.0 mm
12:30 AM 24.4°F-4.2°C 16.7°F-8.5°C 72% 6.7 mph SSE10.8 kmh SSE 7.8 mph12.6 kmh 30.24 in1024.0 mb 0.00 in0.0 mm 0.00 in0.0 mm 0.00 in0.0 mm
12:20 AM 24.4°F-4.2°C 16.7°F-8.5°C 72% 6.9 mph SE11.1 kmh SE 12.1 mph19.5 kmh 30.24 in1024.0 mb 0.00 in0.0 mm 0.00 in0.0 mm 0.00 in0.0 mm
12:10 AM 24.4°F-4.2°C 16.7°F-8.5°C 72% 4.9 mph SE7.9 kmh SE 12.5 mph20.1 kmh 30.24 in1024.0 mb 0.00 in0.0 mm 0.00 in0.0 mm 0.00 in0.0 mm
12:00 AM 24.4°F-4.2°C 16.7°F-8.5°C 72% 9.6 mph SSE15.4 kmh SSE 12.5 mph20.1 kmh 30.27 in1025.1 mb 0.00 in0.0 mm 0.00 in0.0 mm 0.00 in0.0 mm